createdAt,value
2019-05-06T00:00:30.327Z,5.97
2019-05-06T00:03:00.203Z,5.93
2019-05-06T00:05:29.822Z,5.86
2019-05-06T00:07:59.373Z,5.84
2019-05-06T00:10:31.309Z,5.85
2019-05-06T00:13:00.877Z,5.87
2019-05-06T00:15:30.872Z,5.84
2019-05-06T00:18:00.386Z,5.83
2019-05-06T00:20:30.014Z,5.82
2019-05-06T00:23:16.574Z,5.79
2019-05-06T00:26:04.090Z,5.76
2019-05-06T00:28:44.701Z,5.73
2019-05-06T00:31:18.720Z,5.69
2019-05-06T00:33:48.276Z,5.64
2019-05-06T00:36:17.784Z,5.59
2019-05-06T00:38:48.910Z,5.55
2019-05-06T00:41:35.856Z,5.50
2019-05-06T00:44:04.027Z,5.48
2019-05-06T00:46:34.404Z,5.44
2019-05-06T00:49:04.278Z,5.43
2019-05-06T00:51:34.046Z,5.39
2019-05-06T00:54:11.167Z,5.35
2019-05-06T00:56:40.738Z,5.35
2019-05-06T00:59:10.184Z,5.31
2019-05-06T01:01:39.733Z,5.27
2019-05-06T01:04:09.571Z,5.25
2019-05-06T01:06:39.205Z,5.25
2019-05-06T01:09:11.222Z,5.24
2019-05-06T01:11:40.943Z,5.24
2019-05-06T01:14:15.020Z,5.24
2019-05-06T01:16:44.952Z,5.23
2019-05-06T01:19:14.453Z,5.23
2019-05-06T01:21:44.757Z,5.23
2019-05-06T01:24:14.810Z,5.23
2019-05-06T01:26:44.522Z,5.23
2019-05-06T01:29:14.648Z,5.25
2019-05-06T01:31:46.080Z,5.28
2019-05-06T01:34:15.304Z,5.28
2019-05-06T01:36:44.758Z,5.28
2019-05-06T01:39:30.637Z,5.27
2019-05-06T01:42:11.391Z,5.26
2019-05-06T01:44:40.941Z,5.24
2019-05-06T01:47:10.505Z,5.21
2019-05-06T01:49:40.316Z,5.15
2019-05-06T01:52:09.807Z,5.10
2019-05-06T01:54:39.266Z,5.06
2019-05-06T01:57:08.821Z,5.03
2019-05-06T01:59:38.275Z,5.00
2019-05-06T02:02:07.794Z,4.98
2019-05-06T02:04:37.345Z,4.95
2019-05-06T02:07:06.829Z,4.91
2019-05-06T02:09:36.785Z,4.89
2019-05-06T02:12:06.351Z,4.85
2019-05-06T02:14:36.103Z,4.85
2019-05-06T02:17:05.669Z,4.83
2019-05-06T02:19:35.837Z,4.82
2019-05-06T02:22:09.958Z,4.81
2019-05-06T02:24:44.079Z,4.81
2019-05-06T02:27:14.288Z,4.78
2019-05-06T02:29:49.504Z,4.75
2019-05-06T02:32:27.084Z,4.72
2019-05-06T02:35:04.913Z,4.70
2019-05-06T02:37:35.331Z,4.68
2019-05-06T02:40:07.900Z,4.68
2019-05-06T02:42:37.521Z,4.69
2019-05-06T02:45:07.161Z,4.67
2019-05-06T02:47:42.944Z,4.67
2019-05-06T02:50:14.371Z,4.67
2019-05-06T02:52:44.311Z,4.67
2019-05-06T02:55:14.170Z,4.69
2019-05-06T02:57:44.126Z,4.68
2019-05-06T03:00:18.986Z,4.68
2019-05-06T03:02:48.795Z,4.70
2019-05-06T03:05:18.322Z,4.73
2019-05-06T03:07:48.162Z,4.74
2019-05-06T03:10:18.282Z,4.73
2019-05-06T03:12:47.763Z,4.71
2019-05-06T03:15:17.615Z,4.73
2019-05-06T03:17:47.156Z,4.74
2019-05-06T03:20:24.165Z,4.73
2019-05-06T03:22:58.255Z,4.73
2019-05-06T03:25:29.570Z,4.73
2019-05-06T03:27:59.069Z,4.70
2019-05-06T03:30:28.552Z,4.72
2019-05-06T03:33:30.220Z,4.75
2019-05-06T03:35:44.210Z,4.77
2019-05-06T03:38:03.655Z,4.79
2019-05-06T03:40:36.082Z,4.81
2019-05-06T03:43:03.245Z,4.83
2019-05-06T03:45:34.367Z,4.88
2019-05-06T03:48:06.115Z,4.94
2019-05-06T03:50:35.717Z,4.98
2019-05-06T03:53:05.787Z,5.02
2019-05-06T03:55:36.278Z,5.05
2019-05-06T03:58:05.767Z,5.10
2019-05-06T04:00:36.357Z,5.14
2019-05-06T04:03:06.185Z,5.22
2019-05-06T04:05:36.407Z,5.29
2019-05-06T04:08:05.852Z,5.35
2019-05-06T04:10:36.980Z,5.42
2019-05-06T04:13:07.142Z,5.49
2019-05-06T04:15:54.965Z,5.54
2019-05-06T04:18:26.228Z,5.57
2019-05-06T04:20:58.548Z,5.62
2019-05-06T04:23:34.051Z,5.68
2019-05-06T04:26:07.120Z,5.73
2019-05-06T04:28:37.760Z,5.80
2019-05-06T04:31:07.283Z,5.84
2019-05-06T04:33:36.844Z,5.87
2019-05-06T04:36:06.635Z,5.90
2019-05-06T04:38:36.198Z,5.96
2019-05-06T04:41:05.715Z,6.00
2019-05-06T04:43:35.214Z,6.06
2019-05-06T04:46:04.795Z,6.12
2019-05-06T04:48:34.360Z,6.17
2019-05-06T04:51:03.986Z,6.22
2019-05-06T04:53:34.134Z,6.27
2019-05-06T04:56:04.461Z,6.32
2019-05-06T04:58:35.232Z,6.41
2019-05-06T05:01:04.829Z,6.44
2019-05-06T05:03:34.391Z,6.48
2019-05-06T05:06:05.819Z,6.52
2019-05-06T05:08:38.535Z,6.57
2019-05-06T05:11:13.701Z,6.59
2019-05-06T05:13:54.114Z,6.65
2019-05-06T05:16:33.100Z,6.69
2019-05-06T05:19:06.661Z,6.76
2019-05-06T05:21:36.184Z,6.84
2019-05-06T05:24:05.716Z,6.92
2019-05-06T05:26:35.605Z,6.99
2019-05-06T05:29:05.495Z,7.08
2019-05-06T05:31:35.127Z,7.14
2019-05-06T05:34:04.814Z,7.22
2019-05-06T05:36:34.454Z,7.32
2019-05-06T05:39:06.011Z,7.42
2019-05-06T05:41:35.643Z,7.51
2019-05-06T05:44:13.281Z,7.62
2019-05-06T05:46:43.841Z,7.74
2019-05-06T05:49:18.422Z,7.87
2019-05-06T05:51:46.586Z,7.94
2019-05-06T05:54:16.395Z,8.04
2019-05-06T05:56:45.903Z,8.11
2019-05-06T05:59:15.469Z,8.13
2019-05-06T06:01:44.990Z,8.23
2019-05-06T06:04:14.543Z,8.27
2019-05-06T06:06:44.126Z,8.33
2019-05-06T06:09:13.607Z,8.37
2019-05-06T06:11:53.167Z,8.47
2019-05-06T06:14:30.096Z,8.53
2019-05-06T06:17:19.443Z,8.66
2019-05-06T06:20:02.947Z,8.80
2019-05-06T06:22:33.187Z,8.91
2019-05-06T06:25:04.095Z,9.03
2019-05-06T06:27:35.757Z,9.10
2019-05-06T06:30:06.605Z,9.15
2019-05-06T06:32:36.849Z,9.11
2019-05-06T06:35:19.152Z,9.20
2019-05-06T06:37:52.199Z,9.34
2019-05-06T06:40:23.622Z,9.38
2019-05-06T06:42:56.223Z,9.36
2019-05-06T06:45:25.677Z,9.37
2019-05-06T06:47:55.236Z,9.37
2019-05-06T06:50:25.339Z,9.44
2019-05-06T06:52:58.416Z,9.58
2019-05-06T06:55:27.911Z,9.78
2019-05-06T06:58:16.807Z,10.02
2019-05-06T07:00:53.332Z,10.25
2019-05-06T07:03:32.755Z,10.50
2019-05-06T07:06:04.047Z,10.66
2019-05-06T07:08:37.399Z,10.76
2019-05-06T07:11:04.879Z,10.77
2019-05-06T07:13:34.438Z,10.61
2019-05-06T07:16:05.594Z,10.42
2019-05-06T07:18:35.151Z,10.33
2019-05-06T07:21:06.863Z,10.42
2019-05-06T07:23:37.191Z,10.37
2019-05-06T07:26:06.825Z,10.51
2019-05-06T07:28:36.497Z,10.54
2019-05-06T07:31:18.783Z,10.47
2019-05-06T07:33:37.148Z,10.52
2019-05-06T07:36:06.976Z,10.46
2019-05-06T07:38:36.516Z,10.38
2019-05-06T07:41:10.127Z,10.28
2019-05-06T07:43:43.676Z,10.44
2019-05-06T07:46:14.818Z,10.53
2019-05-06T07:48:44.395Z,10.80
2019-05-06T07:51:13.859Z,11.01
2019-05-06T07:53:43.485Z,11.21
2019-05-06T07:56:13.151Z,11.37
2019-05-06T07:58:43.429Z,11.49
2019-05-06T08:01:13.738Z,11.74
2019-05-06T08:03:43.501Z,11.88
2019-05-06T08:06:13.425Z,11.79
2019-05-06T08:08:43.658Z,11.69
2019-05-06T08:11:13.256Z,11.87
2019-05-06T08:13:45.727Z,11.77
2019-05-06T08:16:15.232Z,11.69
2019-05-06T08:18:44.731Z,11.70
2019-05-06T08:21:16.085Z,11.95
2019-05-06T08:23:47.284Z,12.20
2019-05-06T08:26:17.869Z,12.27
2019-05-06T08:28:47.635Z,12.37
2019-05-06T08:31:19.028Z,12.47
2019-05-06T08:33:48.519Z,12.67
2019-05-06T08:36:19.793Z,12.63
2019-05-06T08:38:59.091Z,12.44
2019-05-06T08:41:28.750Z,12.30
2019-05-06T08:43:58.264Z,12.34
2019-05-06T08:46:27.758Z,12.22
2019-05-06T08:48:57.248Z,12.27
2019-05-06T08:51:43.571Z,12.34
2019-05-06T08:54:24.318Z,12.39
2019-05-06T08:56:53.777Z,12.47
2019-05-06T08:59:24.025Z,12.47
2019-05-06T09:01:55.809Z,12.56
2019-05-06T09:04:25.325Z,12.73
2019-05-06T09:06:55.133Z,12.91
2019-05-06T09:09:24.882Z,12.83
2019-05-06T09:11:54.351Z,12.74
2019-05-06T09:14:27.324Z,12.98
2019-05-06T09:16:58.182Z,13.34
2019-05-06T09:19:27.699Z,13.72
2019-05-06T09:21:57.141Z,13.92
2019-05-06T09:24:26.577Z,13.88
2019-05-06T09:26:58.161Z,14.12
2019-05-06T09:29:32.704Z,13.85
2019-05-06T09:32:19.500Z,13.77
2019-05-06T09:34:53.178Z,13.96
2019-05-06T09:37:23.946Z,14.18
2019-05-06T09:39:53.995Z,14.44
2019-05-06T09:42:23.578Z,14.41
2019-05-06T09:44:54.388Z,14.23
2019-05-06T09:47:33.045Z,14.13
2019-05-06T09:50:04.952Z,13.76
2019-05-06T09:52:34.475Z,13.70
2019-05-06T09:55:09.990Z,14.21
2019-05-06T09:57:59.420Z,14.52
2019-05-06T10:00:32.964Z,14.35
2019-05-06T10:03:03.121Z,14.11
2019-05-06T10:05:33.381Z,14.00
2019-05-06T10:08:03.674Z,13.80
2019-05-06T10:10:34.225Z,13.83
2019-05-06T10:13:03.871Z,13.89
2019-05-06T10:15:33.619Z,13.87
2019-05-06T10:18:13.414Z,13.91
2019-05-06T10:20:45.443Z,13.95
2019-05-06T10:23:16.179Z,14.01
2019-05-06T10:25:45.736Z,14.16
2019-05-06T10:28:26.795Z,14.16
2019-05-06T10:30:56.357Z,13.96
2019-05-06T10:33:33.241Z,13.72
2019-05-06T10:36:04.175Z,13.74
2019-05-06T10:38:37.039Z,13.73
2019-05-06T10:41:12.997Z,13.63
2019-05-06T10:43:52.541Z,13.62
2019-05-06T10:46:22.636Z,13.64
2019-05-06T10:48:53.020Z,13.51
2019-05-06T10:51:32.247Z,13.52
2019-05-06T10:54:02.982Z,13.61
2019-05-06T10:56:49.087Z,13.80
2019-05-06T10:59:12.850Z,13.78
2019-05-06T11:01:49.479Z,13.89
2019-05-06T11:04:19.048Z,14.03
2019-05-06T11:06:48.634Z,14.26
2019-05-06T11:09:18.087Z,14.45
2019-05-06T11:11:47.983Z,14.70
2019-05-06T11:14:17.787Z,14.76
2019-05-06T11:16:47.304Z,14.74
2019-05-06T11:19:16.891Z,14.71
2019-05-06T11:21:46.543Z,14.78
2019-05-06T11:24:16.161Z,14.84
2019-05-06T11:26:45.666Z,14.69
2019-05-06T11:29:16.791Z,14.71
2019-05-06T11:31:47.952Z,14.77
2019-05-06T11:34:19.127Z,14.56
2019-05-06T11:36:56.253Z,14.33
2019-05-06T11:39:25.820Z,14.30
2019-05-06T11:42:15.001Z,14.59
2019-05-06T11:44:26.528Z,14.85
2019-05-06T11:46:56.159Z,14.77
2019-05-06T11:49:25.681Z,14.82
2019-05-06T11:51:55.167Z,14.76
2019-05-06T11:54:25.080Z,14.64
2019-05-06T11:56:58.168Z,14.55
2019-05-06T11:59:26.303Z,14.44
2019-05-06T12:02:02.622Z,14.39
2019-05-06T12:04:33.038Z,14.31
2019-05-06T12:07:11.423Z,14.16
2019-05-06T12:09:33.756Z,13.93
2019-05-06T12:12:03.483Z,14.09
2019-05-06T12:14:33.105Z,14.60
2019-05-06T12:17:02.590Z,15.20
2019-05-06T12:19:33.423Z,15.62
2019-05-06T12:22:04.985Z,15.93
2019-05-06T12:24:34.506Z,15.87
2019-05-06T12:27:05.139Z,15.72
2019-05-06T12:29:34.667Z,15.29
2019-05-06T12:32:08.427Z,15.02
2019-05-06T12:34:37.942Z,14.93
2019-05-06T12:37:09.141Z,14.81
2019-05-06T12:39:40.326Z,14.83
2019-05-06T12:42:14.327Z,14.91
2019-05-06T12:44:45.672Z,15.06
2019-05-06T12:47:16.972Z,15.06
2019-05-06T12:49:46.465Z,15.20
2019-05-06T12:52:15.954Z,15.38
2019-05-06T12:54:45.875Z,15.15
2019-05-06T12:57:15.700Z,15.12
2019-05-06T12:59:45.515Z,15.05
2019-05-06T13:02:15.064Z,14.95
2019-05-06T13:04:55.169Z,14.94
2019-05-06T13:07:18.154Z,14.92
2019-05-06T13:09:47.653Z,15.04
2019-05-06T13:12:18.791Z,15.18
2019-05-06T13:14:48.286Z,15.31
2019-05-06T13:17:19.720Z,15.15
2019-05-06T13:19:49.177Z,15.04
2019-05-06T13:22:24.249Z,14.95
2019-05-06T13:24:52.090Z,14.88
2019-05-06T13:27:23.625Z,14.66
2019-05-06T13:29:53.481Z,14.66
2019-05-06T13:32:24.619Z,14.62
2019-05-06T13:34:54.069Z,14.65
2019-05-06T13:37:23.665Z,14.76
2019-05-06T13:39:53.340Z,14.92
2019-05-06T13:42:24.666Z,14.88
2019-05-06T13:44:55.683Z,14.85
2019-05-06T13:47:42.625Z,14.82
2019-05-06T13:50:16.066Z,14.75
2019-05-06T13:52:47.214Z,14.71
2019-05-06T13:55:16.729Z,14.65
2019-05-06T13:57:46.246Z,14.58
2019-05-06T14:00:16.498Z,14.51
2019-05-06T14:02:53.019Z,14.54
2019-05-06T14:05:21.961Z,14.54
2019-05-06T14:07:52.798Z,14.40
2019-05-06T14:10:22.577Z,14.24
2019-05-06T14:12:53.360Z,14.12
2019-05-06T14:15:23.531Z,13.96
2019-05-06T14:17:53.576Z,13.82
2019-05-06T14:20:24.100Z,13.75
2019-05-06T14:22:53.565Z,13.63
2019-05-06T14:25:24.737Z,13.62
2019-05-06T14:27:58.665Z,13.61
2019-05-06T14:30:43.006Z,13.58
2019-05-06T14:33:15.432Z,13.60
2019-05-06T14:35:45.341Z,13.58
2019-05-06T14:38:14.791Z,13.56
2019-05-06T14:41:04.398Z,13.47
2019-05-06T14:43:33.864Z,13.35
2019-05-06T14:46:03.626Z,13.27
2019-05-06T14:48:33.333Z,13.18
2019-05-06T14:51:02.805Z,13.09
2019-05-06T14:53:33.304Z,13.05
2019-05-06T14:56:23.405Z,13.03
2019-05-06T14:59:05.931Z,12.90
2019-05-06T15:01:36.918Z,12.70
2019-05-06T15:04:06.579Z,12.50
2019-05-06T15:06:36.292Z,12.38
2019-05-06T15:09:08.114Z,12.26
2019-05-06T15:11:37.966Z,12.15
2019-05-06T15:14:07.876Z,11.81
2019-05-06T15:16:37.432Z,11.53
2019-05-06T15:19:06.940Z,11.36
2019-05-06T15:21:38.746Z,11.01
2019-05-06T15:24:07.684Z,10.84
2019-05-06T15:26:37.173Z,10.72
2019-05-06T15:29:06.976Z,10.68
2019-05-06T15:31:56.889Z,10.69
2019-05-06T15:34:33.642Z,10.63
2019-05-06T15:37:08.728Z,10.56
2019-05-06T15:39:38.539Z,10.41
2019-05-06T15:42:08.025Z,10.29
2019-05-06T15:44:37.514Z,10.26
2019-05-06T15:47:07.022Z,10.32
2019-05-06T15:49:36.538Z,10.34
2019-05-06T15:52:06.175Z,10.31
2019-05-06T15:54:35.723Z,10.27
2019-05-06T15:57:05.162Z,10.24
2019-05-06T15:59:34.648Z,10.11
2019-05-06T16:02:04.161Z,9.96
2019-05-06T16:04:33.815Z,9.86
2019-05-06T16:07:03.265Z,9.83
2019-05-06T16:09:32.994Z,9.86
2019-05-06T16:12:03.015Z,9.80
2019-05-06T16:14:34.893Z,9.78
2019-05-06T16:17:04.847Z,9.78
2019-05-06T16:19:35.504Z,9.83
2019-05-06T16:22:04.984Z,9.91
2019-05-06T16:24:38.775Z,10.03
2019-05-06T16:27:08.269Z,10.09
2019-05-06T16:29:38.226Z,10.09
2019-05-06T16:32:09.092Z,10.08
2019-05-06T16:34:38.600Z,10.05
2019-05-06T16:37:08.153Z,10.05
2019-05-06T16:39:37.599Z,10.02
2019-05-06T16:42:07.534Z,10.04
2019-05-06T16:44:37.020Z,10.06
2019-05-06T16:47:06.501Z,10.10
2019-05-06T16:49:36.031Z,10.17
2019-05-06T16:52:05.681Z,10.22
2019-05-06T16:54:35.194Z,10.25
2019-05-06T16:57:13.587Z,10.28
2019-05-06T16:59:43.683Z,10.30
2019-05-06T17:02:14.780Z,10.32
2019-05-06T17:04:49.766Z,10.30
2019-05-06T17:07:22.193Z,10.31
2019-05-06T17:09:52.611Z,10.34
2019-05-06T17:12:22.496Z,10.39
2019-05-06T17:14:52.802Z,10.46
2019-05-06T17:17:22.928Z,10.43
2019-05-06T17:19:52.940Z,10.43
2019-05-06T17:22:22.976Z,10.37
2019-05-06T17:24:52.939Z,10.38
2019-05-06T17:27:23.593Z,10.42
2019-05-06T17:29:57.736Z,10.44
2019-05-06T17:32:28.884Z,10.47
2019-05-06T17:35:02.436Z,10.44
2019-05-06T17:37:50.093Z,10.44
2019-05-06T17:40:23.070Z,10.44
2019-05-06T17:42:53.389Z,10.47
2019-05-06T17:45:57.995Z,10.50
2019-05-06T17:48:16.378Z,10.52
2019-05-06T17:50:47.511Z,10.51
2019-05-06T17:53:17.084Z,10.49
2019-05-06T17:55:46.533Z,10.43
2019-05-06T17:58:16.460Z,10.36
2019-05-06T18:00:46.277Z,10.25
2019-05-06T18:03:16.836Z,10.23
2019-05-06T18:05:46.398Z,10.17
2019-05-06T18:08:15.888Z,10.14
2019-05-06T18:10:45.401Z,10.14
2019-05-06T18:13:15.871Z,10.11
2019-05-06T18:15:45.369Z,10.07
2019-05-06T18:18:15.583Z,10.04
2019-05-06T18:20:45.076Z,10.03
2019-05-06T18:23:15.697Z,9.98
2019-05-06T18:25:45.259Z,9.87
2019-05-06T18:28:15.151Z,9.83
2019-05-06T18:30:44.722Z,9.82
2019-05-06T18:33:14.899Z,9.80
2019-05-06T18:35:45.060Z,9.72
2019-05-06T18:38:14.600Z,9.66
2019-05-06T18:40:44.914Z,9.62
2019-05-06T18:43:14.459Z,9.63
2019-05-06T18:45:44.277Z,9.64
2019-05-06T18:48:13.818Z,9.63
2019-05-06T18:50:43.685Z,9.65
2019-05-06T18:53:13.604Z,9.71
2019-05-06T18:55:43.138Z,9.73
2019-05-06T18:58:12.915Z,9.75
2019-05-06T19:00:44.017Z,9.74
2019-05-06T19:03:14.673Z,9.76
2019-05-06T19:05:45.163Z,9.77
2019-05-06T19:08:22.224Z,9.77
2019-05-06T19:10:53.207Z,9.73
2019-05-06T19:13:22.771Z,9.71
2019-05-06T19:15:52.739Z,9.69
2019-05-06T19:18:22.516Z,9.72
2019-05-06T19:20:53.077Z,9.72
2019-05-06T19:23:22.634Z,9.73
2019-05-06T19:25:52.113Z,9.75
2019-05-06T19:28:22.052Z,9.77
2019-05-06T19:30:54.137Z,9.78
2019-05-06T19:33:23.555Z,9.76
2019-05-06T19:35:54.093Z,9.72
2019-05-06T19:38:24.464Z,9.65
2019-05-06T19:40:55.239Z,9.54
2019-05-06T19:43:24.704Z,9.51
2019-05-06T19:45:54.278Z,9.48
2019-05-06T19:48:24.711Z,9.43
2019-05-06T19:50:55.834Z,9.40
2019-05-06T19:53:25.930Z,9.37
2019-05-06T19:55:55.388Z,9.38
2019-05-06T19:58:24.904Z,9.37
2019-05-06T20:00:56.393Z,9.37
2019-05-06T20:03:26.063Z,9.32
2019-05-06T20:05:57.834Z,9.27
2019-05-06T20:08:38.335Z,9.26
2019-05-06T20:11:13.649Z,9.27
2019-05-06T20:13:43.209Z,9.25
2019-05-06T20:16:13.073Z,9.24
2019-05-06T20:18:42.860Z,9.16
2019-05-06T20:21:12.427Z,8.95
2019-05-06T20:23:42.521Z,8.56
2019-05-06T20:26:12.505Z,8.39
2019-05-06T20:28:42.943Z,8.35
2019-05-06T20:31:12.711Z,8.13
2019-05-06T20:33:42.348Z,7.94
2019-05-06T20:36:12.606Z,7.92
2019-05-06T20:38:43.171Z,7.91
2019-05-06T20:41:13.707Z,7.94
2019-05-06T20:43:43.185Z,7.85
2019-05-06T20:46:13.035Z,7.77
2019-05-06T20:48:42.591Z,7.76
2019-05-06T20:51:13.204Z,7.76
2019-05-06T20:53:43.288Z,7.81
2019-05-06T20:56:12.775Z,7.74
2019-05-06T20:58:42.259Z,7.70
2019-05-06T21:01:13.183Z,7.73
2019-05-06T21:03:42.631Z,7.76
2019-05-06T21:06:13.185Z,7.80
2019-05-06T21:08:42.836Z,7.82
2019-05-06T21:11:25.893Z,7.84
2019-05-06T21:13:43.833Z,7.87
2019-05-06T21:16:13.645Z,7.91
2019-05-06T21:18:43.447Z,7.89
2019-05-06T21:21:13.651Z,7.83
2019-05-06T21:23:43.198Z,7.83
2019-05-06T21:26:13.694Z,7.84
2019-05-06T21:28:46.306Z,7.85
2019-05-06T21:31:14.981Z,7.87
2019-05-06T21:33:44.424Z,7.89
2019-05-06T21:36:13.932Z,7.90
2019-05-06T21:38:43.417Z,7.89
2019-05-06T21:41:12.858Z,7.91
2019-05-06T21:43:49.463Z,7.91
2019-05-06T21:46:13.956Z,7.93
2019-05-06T21:48:43.808Z,7.95
2019-05-06T21:51:13.596Z,7.97
2019-05-06T21:53:43.150Z,7.99
2019-05-06T21:56:13.153Z,8.01
2019-05-06T21:58:42.940Z,8.03
2019-05-06T22:01:13.166Z,8.03
2019-05-06T22:03:43.464Z,8.03
2019-05-06T22:06:13.498Z,8.02
2019-05-06T22:08:43.042Z,8.01
2019-05-06T22:11:12.910Z,8.01
2019-05-06T22:13:42.727Z,8.03
2019-05-06T22:16:12.618Z,8.07
2019-05-06T22:18:45.482Z,8.06
2019-05-06T22:21:22.522Z,8.07
2019-05-06T22:24:04.307Z,8.07
2019-05-06T22:26:32.996Z,8.09
2019-05-06T22:29:02.588Z,8.09
2019-05-06T22:31:33.055Z,8.08
2019-05-06T22:34:02.816Z,8.08
2019-05-06T22:36:32.677Z,8.11
2019-05-06T22:39:02.585Z,8.12
2019-05-06T22:41:33.714Z,8.12
2019-05-06T22:44:13.145Z,8.13
2019-05-06T22:46:34.508Z,8.13
2019-05-06T22:49:03.997Z,8.11
2019-05-06T22:51:33.442Z,8.10
2019-05-06T22:54:03.023Z,8.11
2019-05-06T22:56:32.736Z,8.10
2019-05-06T22:59:03.355Z,8.09
2019-05-06T23:01:43.796Z,8.07
2019-05-06T23:04:14.921Z,8.08
2019-05-06T23:06:44.374Z,8.12
2019-05-06T23:09:13.926Z,8.13
2019-05-06T23:11:43.390Z,8.15
2019-05-06T23:14:27.547Z,8.12
2019-05-06T23:16:44.518Z,8.13
2019-05-06T23:19:14.070Z,8.15
2019-05-06T23:21:43.879Z,8.14
2019-05-06T23:24:13.384Z,8.14
2019-05-06T23:26:42.851Z,8.14
2019-05-06T23:29:13.057Z,8.15
2019-05-06T23:31:43.255Z,8.17
2019-05-06T23:34:13.234Z,8.17
2019-05-06T23:37:02.671Z,8.19
2019-05-06T23:40:12.664Z,8.20
2019-05-06T23:43:22.059Z,8.22
2019-05-06T23:46:27.811Z,8.24
2019-05-06T23:49:34.127Z,8.21
2019-05-06T23:52:40.306Z,8.22
2019-05-06T23:55:46.181Z,8.18
2019-05-06T23:58:15.497Z,8.15
